createdAt,value
2019-04-11T00:00:11.463Z,12.50
2019-04-11T00:02:44.814Z,12.50
2019-04-11T00:05:18.854Z,12.50
2019-04-11T00:07:52.211Z,12.50
2019-04-11T00:10:25.181Z,12.50
2019-04-11T00:12:58.955Z,12.50
2019-04-11T00:15:32.805Z,12.50
2019-04-11T00:18:06.303Z,12.50
2019-04-11T00:20:40.267Z,12.40
2019-04-11T00:23:14.184Z,12.40
2019-04-11T00:25:47.475Z,12.50
2019-04-11T00:28:20.222Z,12.50
2019-04-11T00:30:52.641Z,12.40
2019-04-11T00:33:26.437Z,12.40
2019-04-11T00:35:57.786Z,12.40
2019-04-11T00:38:31.963Z,12.30
2019-04-11T00:41:05.847Z,12.30
2019-04-11T00:43:41.875Z,12.30
2019-04-11T00:46:11.952Z,12.20
2019-04-11T00:48:46.104Z,12.00
2019-04-11T00:51:18.747Z,12.10
2019-04-11T00:53:52.070Z,12.10
2019-04-11T00:56:24.885Z,12.00
2019-04-11T00:58:58.291Z,12.10
2019-04-11T01:01:31.640Z,12.10
2019-04-11T01:04:04.641Z,12.10
2019-04-11T01:06:38.365Z,12.10
2019-04-11T01:09:12.436Z,12.10
2019-04-11T01:11:45.795Z,12.10
2019-04-11T01:14:18.781Z,12.00
2019-04-11T01:16:53.693Z,12.10
2019-04-11T01:19:27.061Z,12.10
2019-04-11T01:21:59.504Z,12.00
2019-04-11T01:24:33.663Z,12.00
2019-04-11T01:27:07.770Z,12.00
2019-04-11T01:29:41.901Z,12.00
2019-04-11T01:32:15.959Z,12.00
2019-04-11T01:34:48.752Z,12.00
2019-04-11T01:37:21.961Z,11.90
2019-04-11T01:39:59.232Z,11.90
2019-04-11T01:42:33.362Z,12.00
2019-04-11T01:45:07.318Z,11.90
2019-04-11T01:48:04.382Z,11.90
2019-04-11T01:50:37.564Z,11.90
2019-04-11T01:53:09.121Z,11.70
2019-04-11T01:55:42.882Z,11.60
2019-04-11T01:58:16.541Z,11.70
2019-04-11T02:01:04.185Z,11.70
2019-04-11T02:03:52.701Z,11.60
2019-04-11T02:06:25.842Z,11.60
2019-04-11T02:08:59.825Z,11.70
2019-04-11T02:11:33.848Z,12.20
2019-04-11T02:14:14.274Z,11.80
2019-04-11T02:16:43.289Z,11.70
2019-04-11T02:19:14.361Z,11.70
2019-04-11T02:21:46.662Z,11.80
2019-04-11T02:24:36.341Z,11.90
2019-04-11T02:27:23.313Z,11.80
2019-04-11T02:29:55.988Z,11.80
2019-04-11T02:32:29.302Z,11.90
2019-04-11T02:35:06.474Z,11.90
2019-04-11T02:37:37.935Z,11.90
2019-04-11T02:40:11.189Z,11.90
2019-04-11T02:42:43.322Z,11.90
2019-04-11T02:45:32.638Z,11.80
2019-04-11T02:47:53.678Z,11.90
2019-04-11T02:50:26.524Z,11.90
2019-04-11T02:53:00.817Z,11.90
2019-04-11T02:55:33.536Z,11.90
2019-04-11T02:58:07.864Z,11.80
2019-04-11T03:00:40.797Z,11.90
2019-04-11T03:03:15.024Z,11.90
2019-04-11T03:05:48.514Z,11.80
2019-04-11T03:08:22.691Z,11.90
2019-04-11T03:10:57.439Z,11.90
2019-04-11T03:13:30.382Z,11.80
2019-04-11T03:16:16.837Z,11.90
2019-04-11T03:18:54.797Z,11.90
2019-04-11T03:21:14.524Z,11.90
2019-04-11T03:23:44.781Z,11.90
2019-04-11T03:26:18.938Z,11.90
2019-04-11T03:28:55.611Z,11.80
2019-04-11T03:32:04.637Z,11.90
2019-04-11T03:34:52.164Z,12.00
2019-04-11T03:37:13.703Z,11.90
2019-04-11T03:39:28.123Z,11.80
2019-04-11T03:41:59.007Z,11.70
2019-04-11T03:44:24.492Z,11.80
2019-04-11T03:47:08.339Z,11.80
2019-04-11T03:49:34.245Z,11.90
2019-04-11T03:51:59.233Z,11.80
2019-04-11T03:54:31.835Z,11.80
2019-04-11T03:57:05.638Z,11.60
2019-04-11T03:59:40.559Z,11.50
2019-04-11T04:02:15.328Z,11.50
2019-04-11T04:04:46.773Z,11.60
2019-04-11T04:07:21.409Z,11.50
2019-04-11T04:09:54.565Z,11.50
2019-04-11T04:12:29.332Z,11.50
2019-04-11T04:15:09.159Z,11.60
2019-04-11T04:18:00.362Z,11.60
2019-04-11T04:20:51.274Z,11.50
2019-04-11T04:23:31.360Z,11.50
2019-04-11T04:26:06.220Z,11.50
2019-04-11T04:28:40.658Z,11.40
2019-04-11T04:31:14.043Z,11.30
2019-04-11T04:33:47.691Z,11.30
2019-04-11T04:36:22.371Z,11.40
2019-04-11T04:38:54.673Z,11.40
2019-04-11T04:41:37.521Z,11.40
2019-04-11T04:44:04.305Z,11.40
2019-04-11T04:46:52.683Z,11.40
2019-04-11T04:49:11.170Z,11.40
2019-04-11T04:51:45.731Z,11.30
2019-04-11T04:54:19.824Z,11.30
2019-04-11T04:56:52.418Z,11.40
2019-04-11T04:59:25.475Z,11.50
2019-04-11T05:01:59.356Z,11.40
2019-04-11T05:04:33.618Z,11.40
2019-04-11T05:07:07.283Z,11.40
2019-04-11T05:09:40.599Z,11.30
2019-04-11T05:12:13.953Z,11.30
2019-04-11T05:14:45.783Z,11.40
2019-04-11T05:17:19.239Z,11.30
2019-04-11T05:19:52.881Z,11.30
2019-04-11T05:22:26.708Z,11.20
2019-04-11T05:25:01.749Z,11.10
2019-04-11T05:27:33.554Z,11.10
2019-04-11T05:30:07.936Z,11.10
2019-04-11T05:32:41.751Z,11.00
2019-04-11T05:35:16.495Z,11.00
2019-04-11T05:37:51.416Z,11.00
2019-04-11T05:40:24.342Z,10.90
2019-04-11T05:42:57.625Z,10.80
2019-04-11T05:45:31.729Z,10.80
2019-04-11T05:48:05.821Z,10.70
2019-04-11T05:50:44.239Z,10.70
2019-04-11T05:53:12.241Z,10.80
2019-04-11T05:55:47.484Z,10.80
2019-04-11T05:58:20.301Z,10.80
2019-04-11T06:01:06.128Z,10.80
2019-04-11T06:03:41.051Z,10.90
2019-04-11T06:06:46.901Z,10.80
2019-04-11T06:09:23.976Z,10.70
2019-04-11T06:12:31.699Z,10.80
2019-04-11T06:15:09.402Z,10.80
2019-04-11T06:17:43.202Z,10.80
2019-04-11T06:20:33.433Z,10.80
2019-04-11T06:23:21.287Z,10.90
2019-04-11T06:26:21.320Z,10.80
2019-04-11T06:28:57.018Z,10.80
2019-04-11T06:31:47.430Z,10.80
2019-04-11T06:34:23.604Z,10.80
2019-04-11T06:37:13.809Z,10.70
2019-04-11T06:39:51.661Z,10.70
2019-04-11T06:42:41.383Z,10.80
2019-04-11T06:45:31.379Z,10.90
2019-04-11T06:48:26.297Z,10.90
2019-04-11T06:51:19.867Z,10.90
2019-04-11T06:54:10.764Z,10.90
2019-04-11T06:56:47.582Z,10.90
2019-04-11T06:59:38.802Z,10.90
2019-04-11T07:02:19.072Z,11.00
2019-04-11T07:05:11.044Z,11.00
2019-04-11T07:07:45.539Z,11.20
2019-04-11T07:10:20.229Z,11.20
2019-04-11T07:13:01.581Z,11.20
2019-04-11T07:15:44.260Z,11.30
2019-04-11T07:18:34.172Z,11.40
2019-04-11T07:21:12.684Z,11.50
2019-04-11T07:24:03.861Z,11.50
2019-04-11T07:26:50.099Z,11.50
2019-04-11T07:29:56.553Z,11.40
2019-04-11T07:32:30.203Z,11.50
2019-04-11T07:35:19.314Z,11.50
2019-04-11T07:37:55.403Z,11.60
2019-04-11T07:41:01.962Z,11.60
2019-04-11T07:43:36.162Z,11.70
2019-04-11T07:46:28.843Z,11.70
2019-04-11T07:49:08.172Z,11.80
2019-04-11T07:51:45.035Z,11.80
2019-04-11T07:54:20.273Z,11.90
2019-04-11T07:57:00.233Z,11.90
2019-04-11T08:00:03.909Z,11.90
2019-04-11T08:03:14.456Z,11.90
2019-04-11T08:06:08.024Z,11.90
2019-04-11T08:08:47.129Z,11.80
2019-04-11T08:11:33.880Z,11.70
2019-04-11T08:14:42.605Z,11.70
2019-04-11T08:17:30.914Z,11.60
2019-04-11T08:20:15.277Z,11.70
2019-04-11T08:22:49.704Z,11.60
2019-04-11T08:25:51.532Z,11.70
2019-04-11T08:28:23.202Z,11.80
2019-04-11T08:31:28.898Z,11.90
2019-04-11T08:34:04.931Z,12.10
2019-04-11T08:37:05.306Z,12.10
2019-04-11T08:39:42.019Z,12.00
2019-04-11T08:42:31.690Z,12.00
2019-04-11T08:45:05.999Z,11.80
2019-04-11T08:47:52.691Z,11.90
2019-04-11T08:50:26.186Z,12.00
2019-04-11T08:53:13.783Z,12.10
2019-04-11T08:55:57.094Z,12.10
2019-04-11T08:58:33.757Z,12.10
2019-04-11T09:01:07.464Z,12.10
2019-04-11T09:04:05.223Z,12.20
2019-04-11T09:06:34.672Z,12.10
2019-04-11T09:09:25.608Z,12.10
2019-04-11T09:12:04.453Z,12.10
2019-04-11T09:14:54.755Z,12.10
2019-04-11T09:17:37.077Z,12.10
2019-04-11T09:20:27.632Z,11.90
2019-04-11T09:23:11.703Z,11.80
2019-04-11T09:26:03.546Z,11.90
2019-04-11T09:28:41.945Z,11.80
2019-04-11T09:31:42.182Z,11.80
2019-04-11T09:34:39.735Z,11.80
2019-04-11T09:37:22.079Z,11.80
2019-04-11T09:40:15.258Z,12.00
2019-04-11T09:42:51.246Z,12.00
2019-04-11T09:45:44.409Z,12.10
2019-04-11T09:48:44.399Z,12.10
2019-04-11T09:51:40.515Z,12.20
2019-04-11T09:54:46.862Z,12.20
2019-04-11T09:57:28.846Z,12.20
2019-04-11T10:00:18.578Z,12.20
2019-04-11T10:03:13.036Z,12.30
2019-04-11T10:06:07.246Z,12.30
2019-04-11T10:08:55.475Z,12.30
2019-04-11T10:11:55.285Z,12.40
2019-04-11T10:14:29.402Z,12.40
2019-04-11T10:17:22.252Z,12.30
2019-04-11T10:19:58.257Z,12.20
2019-04-11T10:22:49.578Z,12.00
2019-04-11T10:25:33.317Z,11.90
2019-04-11T10:28:29.833Z,11.90
2019-04-11T10:31:10.606Z,11.90
2019-04-11T10:34:03.203Z,11.90
2019-04-11T10:36:39.073Z,11.80
2019-04-11T10:39:29.809Z,11.80
2019-04-11T10:42:04.909Z,11.80
2019-04-11T10:44:54.438Z,11.90
2019-04-11T10:47:29.101Z,11.90
2019-04-11T10:50:19.471Z,11.90
2019-04-11T10:52:55.085Z,11.80
2019-04-11T10:55:35.695Z,11.70
2019-04-11T10:58:12.975Z,11.70
2019-04-11T11:01:13.676Z,11.80
2019-04-11T11:04:13.826Z,11.80
2019-04-11T11:06:48.385Z,11.90
2019-04-11T11:09:30.222Z,12.00
2019-04-11T11:12:21.018Z,12.00
2019-04-11T11:15:09.456Z,12.00
2019-04-11T11:18:32.058Z,12.00
2019-04-11T11:20:55.815Z,12.00
2019-04-11T11:23:44.979Z,12.00
2019-04-11T11:26:22.650Z,12.10
2019-04-11T11:29:14.894Z,12.00
2019-04-11T11:31:52.984Z,12.00
2019-04-11T11:34:35.004Z,12.10
2019-04-11T11:37:31.412Z,12.20
2019-04-11T11:40:32.066Z,12.20
2019-04-11T11:43:23.163Z,12.20
2019-04-11T11:46:22.768Z,12.20
2019-04-11T11:48:55.003Z,12.20
2019-04-11T11:51:53.969Z,12.30
2019-04-11T11:54:34.184Z,12.40
2019-04-11T11:57:10.812Z,12.40
2019-04-11T11:59:48.283Z,12.50
2019-04-11T12:02:26.375Z,12.40
2019-04-11T12:05:12.479Z,12.30
2019-04-11T12:07:56.128Z,12.40
2019-04-11T12:10:47.439Z,12.40
2019-04-11T12:13:40.667Z,12.40
2019-04-11T12:16:19.280Z,12.50
2019-04-11T12:19:15.848Z,12.50
2019-04-11T12:21:48.893Z,12.60
2019-04-11T12:24:30.123Z,12.60
2019-04-11T12:27:20.780Z,12.60
2019-04-11T12:30:10.884Z,12.60
2019-04-11T12:32:53.541Z,12.50
2019-04-11T12:35:44.409Z,12.50
2019-04-11T12:38:37.906Z,12.50
2019-04-11T12:41:35.441Z,12.60
2019-04-11T12:44:35.016Z,12.60
2019-04-11T12:47:40.873Z,12.60
2019-04-11T12:50:31.919Z,12.70
2019-04-11T12:53:22.613Z,12.80
2019-04-11T12:56:19.234Z,12.80
2019-04-11T12:58:53.988Z,12.70
2019-04-11T13:01:44.628Z,12.60
2019-04-11T13:04:30.550Z,12.70
2019-04-11T13:07:33.383Z,12.70
2019-04-11T13:10:44.293Z,12.80
2019-04-11T13:13:24.275Z,12.90
2019-04-11T13:15:58.735Z,12.90
2019-04-11T13:19:04.513Z,12.90
2019-04-11T13:21:54.276Z,12.90
2019-04-11T13:24:43.224Z,12.90
2019-04-11T13:27:20.273Z,12.80
2019-04-11T13:30:10.894Z,12.80
2019-04-11T13:32:55.254Z,12.90
2019-04-11T13:35:45.993Z,12.90
2019-04-11T13:38:28.074Z,13.00
2019-04-11T13:41:20.306Z,13.00
2019-04-11T13:44:14.915Z,13.00
2019-04-11T13:47:05.415Z,13.10
2019-04-11T13:49:54.378Z,13.40
2019-04-11T13:52:44.873Z,13.30
2019-04-11T13:55:20.056Z,13.20
2019-04-11T13:58:11.554Z,13.30
2019-04-11T14:00:51.814Z,13.20
2019-04-11T14:03:45.616Z,13.30
2019-04-11T14:06:25.596Z,13.20
2019-04-11T14:09:26.083Z,13.30
2019-04-11T14:12:04.768Z,13.20
2019-04-11T14:14:36.989Z,13.10
2019-04-11T14:17:18.418Z,13.10
2019-04-11T14:20:29.742Z,13.20
2019-04-11T14:23:20.174Z,13.00
2019-04-11T14:26:13.739Z,12.90
2019-04-11T14:28:52.076Z,13.00
2019-04-11T14:31:41.613Z,13.10
2019-04-11T14:34:32.415Z,13.10
2019-04-11T14:37:25.762Z,13.10
2019-04-11T14:40:05.594Z,13.20
2019-04-11T14:43:05.687Z,13.10
2019-04-11T14:45:56.461Z,13.30
2019-04-11T14:48:43.123Z,13.30
2019-04-11T14:51:32.643Z,13.30
2019-04-11T14:54:08.766Z,13.10
2019-04-11T14:56:47.825Z,13.10
2019-04-11T14:59:41.046Z,13.10
2019-04-11T15:02:34.367Z,13.20
2019-04-11T15:05:25.866Z,13.30
2019-04-11T15:07:59.306Z,13.30
2019-04-11T15:10:40.761Z,13.20
2019-04-11T15:13:15.731Z,13.10
2019-04-11T15:16:05.657Z,13.10
2019-04-11T15:18:40.826Z,13.00
2019-04-11T15:21:36.390Z,12.90
2019-04-11T15:24:07.643Z,12.90
2019-04-11T15:26:52.527Z,12.80
2019-04-11T15:29:29.706Z,12.80
2019-04-11T15:32:32.246Z,12.80
2019-04-11T15:35:10.469Z,12.80
2019-04-11T15:37:59.686Z,12.70
2019-04-11T15:40:49.146Z,12.80
2019-04-11T15:43:42.314Z,12.80
2019-04-11T15:46:21.947Z,12.90
2019-04-11T15:49:20.549Z,12.90
2019-04-11T15:51:47.486Z,13.00
2019-04-11T15:54:46.526Z,13.10
2019-04-11T15:57:22.459Z,13.10
2019-04-11T16:00:30.681Z,13.10
2019-04-11T16:03:27.242Z,13.10
2019-04-11T16:06:16.453Z,13.20
2019-04-11T16:08:55.692Z,13.10
2019-04-11T16:11:45.933Z,13.00
2019-04-11T16:14:22.342Z,13.00
2019-04-11T16:17:13.701Z,13.00
2019-04-11T16:19:47.896Z,13.10
2019-04-11T16:22:37.207Z,13.10
2019-04-11T16:25:11.952Z,13.20
2019-04-11T16:28:08.310Z,13.20
2019-04-11T16:30:52.861Z,13.20
2019-04-11T16:33:45.750Z,13.20
2019-04-11T16:36:40.447Z,13.10
2019-04-11T16:39:33.023Z,13.00
2019-04-11T16:42:07.975Z,12.90
2019-04-11T16:44:57.647Z,12.80
2019-04-11T16:47:47.632Z,12.80
2019-04-11T16:50:20.708Z,12.70
2019-04-11T16:52:53.048Z,12.80
2019-04-11T16:55:25.427Z,12.80
2019-04-11T16:57:57.950Z,12.90
2019-04-11T17:00:30.370Z,12.90
2019-04-11T17:03:02.342Z,12.90
2019-04-11T17:05:35.083Z,12.90
2019-04-11T17:08:33.342Z,12.90
2019-04-11T17:11:19.403Z,12.90
2019-04-11T17:13:52.068Z,12.90
2019-04-11T17:16:29.947Z,12.80
2019-04-11T17:19:05.021Z,12.70
2019-04-11T17:21:42.759Z,12.80
2019-04-11T17:24:08.045Z,12.80
2019-04-11T17:26:39.903Z,12.80
2019-04-11T17:29:12.422Z,12.50
2019-04-11T17:31:44.447Z,12.40
2019-04-11T17:34:16.223Z,12.50
2019-04-11T17:36:47.705Z,12.40
2019-04-11T17:39:20.302Z,12.40
2019-04-11T17:41:52.622Z,12.50
2019-04-11T17:44:25.539Z,12.50
2019-04-11T17:46:57.422Z,12.50
2019-04-11T17:49:29.163Z,12.50
2019-04-11T17:52:04.803Z,12.50
2019-04-11T17:54:35.350Z,12.40
2019-04-11T17:57:07.144Z,12.40
2019-04-11T17:59:40.522Z,12.40
2019-04-11T18:02:13.082Z,12.50
2019-04-11T18:04:47.896Z,12.50
2019-04-11T18:07:19.266Z,12.50
2019-04-11T18:09:55.709Z,12.60
2019-04-11T18:12:26.830Z,12.60
2019-04-11T18:15:02.172Z,12.50
2019-04-11T18:17:34.971Z,12.50
2019-04-11T18:20:07.604Z,12.50
2019-04-11T18:22:40.343Z,12.50
2019-04-11T18:25:12.743Z,12.50
2019-04-11T18:27:45.022Z,12.50
2019-04-11T18:30:17.823Z,12.50
2019-04-11T18:32:50.923Z,12.50
2019-04-11T18:35:23.762Z,12.50
2019-04-11T18:37:54.828Z,12.50
2019-04-11T18:40:26.843Z,12.50
2019-04-11T18:42:58.942Z,12.50
2019-04-11T18:45:31.262Z,12.50
2019-04-11T18:48:02.222Z,12.50
2019-04-11T18:50:35.922Z,12.40
2019-04-11T18:53:10.063Z,12.40
2019-04-11T18:55:41.807Z,12.40
2019-04-11T18:58:14.743Z,12.50
2019-04-11T19:00:47.283Z,12.50
2019-04-11T19:03:21.284Z,12.40
2019-04-11T19:05:54.463Z,12.30
2019-04-11T19:08:27.827Z,12.20
2019-04-11T19:10:59.822Z,12.10
2019-04-11T19:13:30.564Z,12.00
2019-04-11T19:16:03.482Z,11.90
2019-04-11T19:18:35.743Z,11.90
2019-04-11T19:21:07.483Z,11.90
2019-04-11T19:23:40.183Z,11.90
2019-04-11T19:26:14.779Z,11.90
2019-04-11T19:28:49.142Z,11.80
2019-04-11T19:31:20.982Z,11.70
2019-04-11T19:33:54.484Z,11.80
2019-04-11T19:36:27.522Z,11.70
2019-04-11T19:39:01.368Z,11.60
2019-04-11T19:41:34.083Z,11.60
2019-04-11T19:44:06.523Z,11.60
2019-04-11T19:46:37.603Z,11.60
2019-04-11T19:49:10.143Z,11.60
2019-04-11T19:51:42.342Z,11.70
2019-04-11T19:54:14.422Z,11.60
2019-04-11T19:56:50.342Z,11.60
2019-04-11T19:59:22.682Z,11.60
2019-04-11T20:01:55.983Z,11.60
2019-04-11T20:04:26.866Z,11.70
2019-04-11T20:06:59.844Z,11.60
2019-04-11T20:09:32.104Z,11.60
2019-04-11T20:12:03.923Z,11.50
2019-04-11T20:14:36.843Z,11.50
2019-04-11T20:17:09.268Z,11.50
2019-04-11T20:19:42.463Z,11.50
2019-04-11T20:22:16.503Z,11.50
2019-04-11T20:24:49.017Z,11.60
2019-04-11T20:27:21.823Z,11.50
2019-04-11T20:29:55.473Z,11.50
2019-04-11T20:32:30.578Z,11.50
2019-04-11T20:35:03.108Z,11.50
2019-04-11T20:37:39.596Z,11.50
2019-04-11T20:40:09.742Z,11.50
2019-04-11T20:42:42.042Z,11.50
2019-04-11T20:45:14.704Z,11.40
2019-04-11T20:47:46.743Z,11.40
2019-04-11T20:50:19.083Z,11.40
2019-04-11T20:52:52.143Z,11.40
2019-04-11T20:55:23.743Z,11.40
2019-04-11T20:57:57.189Z,11.30
2019-04-11T21:00:29.624Z,11.40
2019-04-11T21:03:01.944Z,11.40
2019-04-11T21:05:34.123Z,11.30
2019-04-11T21:08:07.362Z,11.30
2019-04-11T21:10:40.183Z,11.30
2019-04-11T21:13:11.283Z,11.20
2019-04-11T21:15:44.302Z,11.30
2019-04-11T21:18:16.283Z,11.20
2019-04-11T21:20:48.422Z,11.10
2019-04-11T21:23:24.636Z,11.10
2019-04-11T21:25:53.563Z,11.00
2019-04-11T21:28:29.806Z,11.10
2019-04-11T21:31:01.282Z,11.10
2019-04-11T21:33:35.019Z,11.00
2019-04-11T21:36:07.883Z,10.90
2019-04-11T21:38:40.924Z,10.90
2019-04-11T21:41:12.609Z,10.90
2019-04-11T21:43:45.182Z,10.90
2019-04-11T21:46:18.143Z,10.90
2019-04-11T21:48:51.403Z,10.90
2019-04-11T21:51:23.204Z,10.80
2019-04-11T21:53:56.415Z,10.80
2019-04-11T21:56:29.647Z,10.80
2019-04-11T21:59:02.745Z,10.70
2019-04-11T22:01:37.150Z,10.70
2019-04-11T22:04:11.043Z,10.70
2019-04-11T22:06:44.013Z,10.70
2019-04-11T22:09:16.663Z,10.60
2019-04-11T22:11:47.642Z,10.60
2019-04-11T22:14:21.022Z,10.70
2019-04-11T22:16:54.936Z,10.60
2019-04-11T22:19:27.524Z,10.60
2019-04-11T22:22:00.042Z,10.60
2019-04-11T22:24:32.862Z,10.50
2019-04-11T22:27:05.742Z,10.50
2019-04-11T22:29:38.322Z,10.50
2019-04-11T22:32:11.124Z,10.50
2019-04-11T22:34:45.663Z,10.40
2019-04-11T22:37:18.567Z,10.30
2019-04-11T22:39:50.883Z,10.40
2019-04-11T22:42:23.223Z,10.30
2019-04-11T22:44:56.202Z,10.30
2019-04-11T22:47:28.862Z,10.20
2019-04-11T22:50:01.442Z,10.20
2019-04-11T22:52:33.302Z,10.20
2019-04-11T22:55:06.082Z,10.20
2019-04-11T22:57:40.865Z,10.20
2019-04-11T23:00:15.223Z,10.10
2019-04-11T23:02:57.662Z,10.10
2019-04-11T23:05:30.262Z,10.20
2019-04-11T23:08:03.282Z,10.10
2019-04-11T23:10:36.381Z,10.20
2019-04-11T23:13:10.502Z,10.20
2019-04-11T23:15:43.368Z,10.30
2019-04-11T23:18:15.162Z,10.20
2019-04-11T23:20:47.463Z,10.20
2019-04-11T23:23:20.243Z,10.20
2019-04-11T23:25:52.383Z,10.20
2019-04-11T23:28:24.723Z,10.30
2019-04-11T23:30:57.442Z,10.40
2019-04-11T23:33:28.022Z,10.50
2019-04-11T23:36:00.363Z,10.50
2019-04-11T23:38:32.462Z,10.60
2019-04-11T23:41:05.002Z,10.60
2019-04-11T23:43:37.443Z,10.60
2019-04-11T23:46:09.662Z,10.70
2019-04-11T23:48:41.718Z,10.80
2019-04-11T23:51:13.294Z,10.80
2019-04-11T23:53:45.332Z,10.90
2019-04-11T23:56:17.614Z,10.80
2019-04-11T23:58:50.492Z,10.70
